createdAt,value
2018-12-21T00:02:57.122Z,99842.63
2018-12-21T00:05:23.323Z,99843.47
2018-12-21T00:07:49.544Z,99850.62
2018-12-21T00:10:15.859Z,99849.86
2018-12-21T00:12:41.928Z,99847.79
2018-12-21T00:15:08.233Z,99848.00
2018-12-21T00:17:34.937Z,99849.39
2018-12-21T00:20:01.264Z,99844.07
2018-12-21T00:22:27.482Z,99846.09
2018-12-21T00:24:53.570Z,99844.53
2018-12-21T00:27:19.710Z,99848.44
2018-12-21T00:29:45.883Z,99843.19
2018-12-21T00:32:18.137Z,99844.84
2018-12-21T00:34:50.276Z,99845.69
2018-12-21T00:37:22.679Z,99850.83
2018-12-21T00:39:54.818Z,99846.24
2018-12-21T00:42:23.131Z,99842.70
2018-12-21T00:44:51.346Z,99836.11
2018-12-21T00:47:18.072Z,99846.16
2018-12-21T00:49:44.183Z,99840.75
2018-12-21T00:52:10.265Z,99843.84
2018-12-21T00:54:36.377Z,99835.54
2018-12-21T00:57:02.822Z,99835.08
2018-12-21T00:59:29.026Z,99829.78
2018-12-21T01:01:55.307Z,99832.55
2018-12-21T01:04:21.550Z,99835.55
2018-12-21T01:06:47.745Z,99836.83
2018-12-21T01:09:13.920Z,99832.09
2018-12-21T01:11:40.136Z,99831.80
2018-12-21T01:14:06.418Z,99834.55
2018-12-21T01:16:32.597Z,99829.02
2018-12-21T01:18:58.793Z,99833.30
2018-12-21T01:21:24.850Z,99836.65
2018-12-21T01:23:51.248Z,99827.80
2018-12-21T01:26:17.346Z,99835.27
2018-12-21T01:28:43.472Z,99829.59
2018-12-21T01:31:09.651Z,99829.96
2018-12-21T01:33:35.952Z,99839.61
2018-12-21T01:36:02.252Z,99837.54
2018-12-21T01:38:28.422Z,99841.09
2018-12-21T01:40:54.475Z,99837.31
2018-12-21T01:43:20.745Z,99831.94
2018-12-21T01:45:47.054Z,99827.84
2018-12-21T01:48:13.249Z,99824.20
2018-12-21T01:50:39.452Z,99821.96
2018-12-21T01:53:06.278Z,99828.74
2018-12-21T01:55:32.525Z,99821.52
2018-12-21T01:57:58.829Z,99813.05
2018-12-21T02:00:25.176Z,99813.14
2018-12-21T02:02:51.408Z,99815.59
2018-12-21T02:05:17.608Z,99812.60
2018-12-21T02:07:43.929Z,99808.91
2018-12-21T02:10:10.342Z,99805.91
2018-12-21T02:12:43.705Z,99808.93
2018-12-21T02:15:09.901Z,99817.28
2018-12-21T02:17:36.170Z,99805.95
2018-12-21T02:20:03.198Z,99812.60
2018-12-21T02:22:29.390Z,99802.63
2018-12-21T02:24:55.581Z,99808.38
2018-12-21T02:27:21.641Z,99799.24
2018-12-21T02:29:47.831Z,99789.83
2018-12-21T02:32:14.368Z,99791.89
2018-12-21T02:34:40.494Z,99790.11
2018-12-21T02:37:06.807Z,99785.53
2018-12-21T02:39:33.082Z,99782.95
2018-12-21T02:41:59.533Z,99788.61
2018-12-21T02:44:25.731Z,99793.73
2018-12-21T02:46:51.957Z,99792.67
2018-12-21T02:49:18.045Z,99787.61
2018-12-21T02:51:44.178Z,99791.98
2018-12-21T02:54:10.274Z,99786.97
2018-12-21T02:56:36.494Z,99778.03
2018-12-21T02:59:02.824Z,99791.25
2018-12-21T03:01:29.141Z,99781.77
2018-12-21T03:03:55.210Z,99784.94
2018-12-21T03:06:21.418Z,99777.56
2018-12-21T03:08:47.596Z,99778.67
2018-12-21T03:11:13.829Z,99774.16
2018-12-21T03:13:40.015Z,99769.70
2018-12-21T03:16:06.320Z,99765.88
2018-12-21T03:18:32.517Z,99763.74
2018-12-21T03:20:58.828Z,99757.61
2018-12-21T03:23:24.909Z,99765.15
2018-12-21T03:25:51.080Z,99752.95
2018-12-21T03:28:17.134Z,99758.17
2018-12-21T03:30:43.346Z,99750.86
2018-12-21T03:33:09.560Z,99747.78
2018-12-21T03:35:35.928Z,99746.75
2018-12-21T03:38:02.133Z,99751.16
2018-12-21T03:40:28.341Z,99744.35
2018-12-21T03:42:54.406Z,99746.20
2018-12-21T03:45:20.681Z,99735.31
2018-12-21T03:47:46.958Z,99735.14
2018-12-21T03:50:13.140Z,99732.41
2018-12-21T03:52:39.332Z,99736.47
2018-12-21T03:55:05.746Z,99730.27
2018-12-21T03:57:32.017Z,99741.90
2018-12-21T03:59:58.074Z,99739.83
2018-12-21T04:02:24.171Z,99732.84
2018-12-21T04:04:50.388Z,99728.55
2018-12-21T04:07:16.481Z,99737.77
2018-12-21T04:09:42.582Z,99734.51
2018-12-21T04:12:08.806Z,99721.70
2018-12-21T04:14:34.878Z,99720.24
2018-12-21T04:17:00.999Z,99721.55
2018-12-21T04:19:27.084Z,99722.36
2018-12-21T04:21:53.312Z,99712.42
2018-12-21T04:24:19.603Z,99714.66
2018-12-21T04:26:45.808Z,99702.34
2018-12-21T04:29:11.895Z,99703.98
2018-12-21T04:31:38.201Z,99698.45
2018-12-21T04:34:04.270Z,99699.10
2018-12-21T04:36:30.376Z,99698.89
2018-12-21T04:38:56.471Z,99694.14
2018-12-21T04:41:22.556Z,99694.39
2018-12-21T04:43:48.889Z,99695.42
2018-12-21T04:46:15.061Z,99694.86
2018-12-21T04:48:41.179Z,99693.21
2018-12-21T04:51:07.471Z,99691.91
2018-12-21T04:53:33.724Z,99686.04
2018-12-21T04:55:59.936Z,99624.50
2018-12-21T04:58:26.141Z,99677.69
2018-12-21T05:00:52.343Z,99671.84
2018-12-21T05:03:18.453Z,99681.47
2018-12-21T05:05:44.560Z,99672.72
2018-12-21T05:08:10.912Z,99677.41
2018-12-21T05:10:37.533Z,99672.81
2018-12-21T05:13:03.843Z,99680.05
2018-12-21T05:15:30.089Z,99651.61
2018-12-21T05:17:56.354Z,99669.74
2018-12-21T05:20:22.806Z,99671.48
2018-12-21T05:22:52.405Z,99682.78
2018-12-21T05:25:17.524Z,99675.27
2018-12-21T05:27:43.884Z,99676.23
2018-12-21T05:30:10.092Z,99686.32
2018-12-21T05:32:36.474Z,99679.98
2018-12-21T05:35:03.069Z,99677.84
2018-12-21T05:37:29.260Z,99676.05
2018-12-21T05:39:55.460Z,99675.52
2018-12-21T05:42:21.672Z,99666.58
2018-12-21T05:44:47.771Z,99669.93
2018-12-21T05:47:13.905Z,99661.73
2018-12-21T05:49:39.964Z,99665.12
2018-12-21T05:52:06.228Z,99662.98
2018-12-21T05:54:32.880Z,99660.52
2018-12-21T05:56:59.035Z,99659.53
2018-12-21T05:59:25.224Z,99656.05
2018-12-21T06:01:51.462Z,99648.45
2018-12-21T06:04:17.649Z,99645.53
2018-12-21T06:06:43.949Z,99645.00
2018-12-21T06:09:10.051Z,99634.79
2018-12-21T06:11:36.329Z,99622.96
2018-12-21T06:14:02.482Z,99619.61
2018-12-21T06:16:28.814Z,99628.36
2018-12-21T06:18:55.722Z,99623.89
2018-12-21T06:21:21.901Z,99625.81
2018-12-21T06:23:48.039Z,99616.64
2018-12-21T06:26:14.417Z,99606.63
2018-12-21T06:28:40.535Z,99610.25
2018-12-21T06:31:06.626Z,99601.78
2018-12-21T06:33:32.741Z,99599.83
2018-12-21T06:35:58.940Z,99595.41
2018-12-21T06:38:25.043Z,99589.73
2018-12-21T06:40:51.120Z,99584.05
2018-12-21T06:43:17.338Z,99582.13
2018-12-21T06:45:43.436Z,99577.28
2018-12-21T06:48:09.760Z,99577.66
2018-12-21T06:50:36.009Z,99581.20
2018-12-21T06:53:02.362Z,99572.20
2018-12-21T06:55:28.685Z,99583.06
2018-12-21T06:57:54.899Z,99576.03
2018-12-21T07:00:21.379Z,99574.87
2018-12-21T07:02:47.768Z,99571.52
2018-12-21T07:05:14.063Z,99571.28
2018-12-21T07:07:40.369Z,99564.74
2018-12-21T07:10:08.676Z,99566.14
2018-12-21T07:12:34.851Z,99563.48
2018-12-21T07:15:01.001Z,99563.62
2018-12-21T07:17:27.221Z,99563.09
2018-12-21T07:19:53.390Z,99559.70
2018-12-21T07:22:19.580Z,99558.87
2018-12-21T07:24:46.037Z,99555.37
2018-12-21T07:27:12.165Z,99556.65
2018-12-21T07:29:38.423Z,99558.05
2018-12-21T07:32:04.725Z,99556.59
2018-12-21T07:34:30.951Z,99553.00
2018-12-21T07:36:57.047Z,99547.38
2018-12-21T07:39:23.266Z,99550.06
2018-12-21T07:41:49.339Z,99540.39
2018-12-21T07:44:15.441Z,99546.92
2018-12-21T07:46:41.539Z,99537.98
2018-12-21T07:49:07.739Z,99535.73
2018-12-21T07:51:33.971Z,99533.36
2018-12-21T07:54:00.187Z,99536.91
2018-12-21T07:56:26.365Z,99528.37
2018-12-21T07:58:57.125Z,99533.36
2018-12-21T08:01:20.744Z,99532.33
2018-12-21T08:03:46.901Z,99525.19
2018-12-21T08:06:13.002Z,99522.28
2018-12-21T08:08:39.317Z,99521.05
2018-12-21T08:11:05.556Z,99519.88
2018-12-21T08:13:31.828Z,99517.45
2018-12-21T08:15:58.035Z,99512.87
2018-12-21T08:18:24.238Z,99511.22
2018-12-21T08:20:50.470Z,99507.21
2018-12-21T08:23:16.686Z,99503.52
2018-12-21T08:25:42.890Z,99502.92
2018-12-21T08:28:09.076Z,99499.27
2018-12-21T08:30:35.184Z,99495.38
2018-12-21T08:33:01.304Z,99492.52
2018-12-21T08:35:27.531Z,99495.52
2018-12-21T08:38:00.564Z,99491.58
2018-12-21T08:40:26.893Z,99477.80
2018-12-21T08:42:53.173Z,99486.32
2018-12-21T08:45:19.415Z,99478.67
2018-12-21T08:47:52.748Z,99477.77
2018-12-21T08:50:19.091Z,99467.45
2018-12-21T08:52:45.469Z,99462.97
2018-12-21T08:55:11.989Z,99460.11
2018-12-21T08:57:41.691Z,99455.50
2018-12-21T09:00:09.949Z,99451.81
2018-12-21T09:02:36.056Z,99443.38
2018-12-21T09:05:02.654Z,99432.95
2018-12-21T09:07:28.782Z,99427.23
2018-12-21T09:09:54.873Z,99419.24
2018-12-21T09:12:21.064Z,99418.77
2018-12-21T09:14:47.410Z,99419.48
2018-12-21T09:17:13.621Z,99408.95
2018-12-21T09:19:39.712Z,99399.19
2018-12-21T09:22:05.805Z,99398.14
2018-12-21T09:24:32.008Z,99400.92
2018-12-21T09:26:58.181Z,99387.14
2018-12-21T09:29:24.267Z,99385.31
2018-12-21T09:31:50.478Z,99376.05
2018-12-21T09:34:16.609Z,99376.41
2018-12-21T09:36:43.139Z,99371.41
2018-12-21T09:39:09.542Z,99366.86
2018-12-21T09:41:35.893Z,99358.03
2018-12-21T09:44:02.006Z,99357.55
2018-12-21T09:46:28.255Z,99344.81
2018-12-21T09:48:54.477Z,99341.91
2018-12-21T09:51:20.861Z,99335.58
2018-12-21T09:53:46.976Z,99333.97
2018-12-21T09:56:13.193Z,99319.62
2018-12-21T09:58:39.272Z,99319.98
2018-12-21T10:04:05.430Z,99308.73
2018-12-21T10:06:31.516Z,99309.98
2018-12-21T10:08:57.856Z,99313.88
2018-12-21T10:11:24.034Z,99299.48
2018-12-21T10:13:50.133Z,99291.05
2018-12-21T10:16:16.309Z,99290.12
2018-12-21T10:18:42.430Z,99276.66
2018-12-21T10:21:08.544Z,99274.64
2018-12-21T10:23:34.657Z,99273.36
2018-12-21T10:26:00.771Z,99267.13
2018-12-21T10:28:26.847Z,99264.72
2018-12-21T10:30:53.184Z,99271.03
2018-12-21T10:33:19.613Z,99273.39
2018-12-21T10:35:46.075Z,99259.88
2018-12-21T10:38:12.141Z,99247.80
2018-12-21T10:40:38.321Z,99256.83
2018-12-21T10:43:04.497Z,99237.93
2018-12-21T10:45:30.702Z,99231.15
2018-12-21T10:47:56.926Z,99222.84
2018-12-21T10:50:23.245Z,99218.21
2018-12-21T10:52:49.475Z,99206.11
2018-12-21T10:55:15.908Z,99192.06
2018-12-21T10:57:42.303Z,99183.80
2018-12-21T11:00:09.134Z,99182.45
2018-12-21T11:02:35.267Z,99175.80
2018-12-21T11:05:01.801Z,99180.73
2018-12-21T11:07:27.898Z,99165.41
2018-12-21T11:09:53.973Z,99161.42
2018-12-21T11:12:20.177Z,99141.56
2018-12-21T11:14:46.290Z,99128.24
2018-12-21T11:17:12.620Z,99126.18
2018-12-21T11:19:38.720Z,99116.14
2018-12-21T11:22:04.829Z,99114.17
2018-12-21T11:24:35.417Z,99112.17
2018-12-21T11:26:59.318Z,99104.69
2018-12-21T11:29:25.413Z,99098.15
2018-12-21T11:31:51.737Z,99087.04
2018-12-21T11:34:17.850Z,99078.36
2018-12-21T11:36:44.066Z,99074.53
2018-12-21T11:39:10.289Z,99069.48
2018-12-21T11:41:36.517Z,99064.06
2018-12-21T11:44:02.858Z,99064.33
2018-12-21T11:46:29.080Z,99068.38
2018-12-21T11:48:55.822Z,99059.56
2018-12-21T11:51:22.125Z,99075.95
2018-12-21T11:53:48.209Z,99046.80
2018-12-21T11:56:14.339Z,99047.13
2018-12-21T11:58:40.537Z,99037.92
2018-12-21T12:01:06.630Z,99036.47
2018-12-21T12:03:32.784Z,99016.16
2018-12-21T12:05:58.991Z,99016.23
2018-12-21T12:08:26.067Z,99002.28
2018-12-21T12:10:52.141Z,98990.52
2018-12-21T12:13:18.243Z,98981.37
2018-12-21T12:15:44.349Z,98978.38
2018-12-21T12:18:10.639Z,98965.47
2018-12-21T12:20:36.940Z,98961.17
2018-12-21T12:23:03.462Z,98953.68
2018-12-21T12:25:29.767Z,98951.98
2018-12-21T12:27:56.009Z,98938.83
2018-12-21T12:30:22.195Z,98935.89
2018-12-21T12:32:48.317Z,98927.78
2018-12-21T12:35:14.622Z,98923.89
2018-12-21T12:37:40.740Z,98916.81
2018-12-21T12:40:07.222Z,98903.63
2018-12-21T12:42:33.625Z,98915.27
2018-12-21T12:44:59.852Z,98915.33
2018-12-21T12:47:26.085Z,98904.02
2018-12-21T12:49:52.337Z,98890.97
2018-12-21T12:52:18.633Z,98886.84
2018-12-21T12:54:44.839Z,98889.91
2018-12-21T12:57:11.070Z,98867.18
2018-12-21T12:59:37.178Z,98868.87
2018-12-21T13:02:03.473Z,98857.40
2018-12-21T13:04:29.606Z,98862.95
2018-12-21T13:06:55.770Z,98853.80
2018-12-21T13:09:21.964Z,98847.89
2018-12-21T13:11:49.557Z,98822.16
2018-12-21T13:14:16.611Z,98826.42
2018-12-21T13:16:44.819Z,98806.13
2018-12-21T13:19:11.177Z,98807.40
2018-12-21T13:21:37.624Z,98801.45
2018-12-21T13:24:03.765Z,98803.66
2018-12-21T13:26:29.944Z,98796.60
2018-12-21T13:28:56.116Z,98797.19
2018-12-21T13:31:22.686Z,98783.39
2018-12-21T13:33:48.798Z,98786.52
2018-12-21T13:36:14.986Z,98770.41
2018-12-21T13:38:41.987Z,98761.13
2018-12-21T13:41:08.458Z,98755.69
2018-12-21T13:43:35.791Z,98754.05
2018-12-21T13:46:02.044Z,98759.98
2018-12-21T13:48:28.462Z,98746.94
2018-12-21T13:50:54.582Z,98742.14
2018-12-21T13:53:20.822Z,98742.67
2018-12-21T13:55:47.905Z,98732.75
2018-12-21T13:58:15.283Z,98723.67
2018-12-21T14:00:41.495Z,98726.17
2018-12-21T14:03:08.313Z,98732.93
2018-12-21T14:05:34.487Z,98716.55
2018-12-21T14:08:01.931Z,98716.97
2018-12-21T14:10:28.931Z,98710.71
2018-12-21T14:12:56.566Z,98702.27
2018-12-21T14:15:24.624Z,98703.70
2018-12-21T14:17:51.309Z,98697.61
2018-12-21T14:20:18.487Z,98693.05
2018-12-21T14:22:45.622Z,98695.19
2018-12-21T14:25:12.169Z,98687.22
2018-12-21T14:27:39.378Z,98684.41
2018-12-21T14:30:07.013Z,98682.13
2018-12-21T14:32:33.277Z,98692.11
2018-12-21T14:35:00.782Z,98674.89
2018-12-21T14:37:26.858Z,98679.37
2018-12-21T14:39:53.170Z,98684.47
2018-12-21T14:42:21.124Z,98674.34
2018-12-21T14:44:47.457Z,98659.95
2018-12-21T14:47:13.580Z,98643.95
2018-12-21T14:49:40.833Z,98643.47
2018-12-21T14:52:08.598Z,98641.38
2018-12-21T14:54:34.984Z,98639.80
2018-12-21T14:57:03.041Z,98633.64
2018-12-21T14:59:29.553Z,98619.63
2018-12-21T15:01:55.738Z,98605.86
2018-12-21T15:04:23.864Z,98606.87
2018-12-21T15:06:50.269Z,98599.14
2018-12-21T15:09:16.398Z,98603.98
2018-12-21T15:11:42.905Z,98595.47
2018-12-21T15:14:08.994Z,98575.69
2018-12-21T15:16:36.795Z,98590.31
2018-12-21T15:19:03.898Z,98578.17
2018-12-21T15:21:30.203Z,98566.75
2018-12-21T15:23:56.613Z,98567.98
2018-12-21T15:26:22.714Z,98563.72
2018-12-21T15:28:49.736Z,98570.13
2018-12-21T15:31:15.970Z,98553.75
2018-12-21T15:33:42.707Z,98547.18
2018-12-21T15:36:09.822Z,98553.59
2018-12-21T15:38:35.920Z,98547.41
2018-12-21T15:41:03.021Z,98535.28
2018-12-21T15:43:29.717Z,98533.09
2018-12-21T15:45:55.941Z,98533.98
2018-12-21T15:48:22.055Z,98524.42
2018-12-21T15:50:48.320Z,98517.95
2018-12-21T15:53:15.459Z,98513.78
2018-12-21T15:55:41.579Z,98523.44
2018-12-21T15:58:07.745Z,98520.83
2018-12-21T16:00:33.952Z,98517.29
2018-12-21T16:03:00.646Z,98498.66
2018-12-21T16:05:26.932Z,98505.65
2018-12-21T16:07:54.663Z,98512.15
2018-12-21T16:10:20.825Z,98509.32
2018-12-21T16:12:47.056Z,98505.07
2018-12-21T16:15:13.411Z,98501.38
2018-12-21T16:17:39.566Z,98477.21
2018-12-21T16:20:09.619Z,98484.96
2018-12-21T16:22:42.345Z,98485.89
2018-12-21T16:25:05.178Z,98460.92
2018-12-21T16:27:31.289Z,98462.37
2018-12-21T16:29:57.405Z,98464.75
2018-12-21T16:32:23.560Z,98466.55
2018-12-21T16:34:49.652Z,98458.31
2018-12-21T16:37:15.807Z,98449.02
2018-12-21T16:39:42.040Z,98449.53
2018-12-21T16:42:08.803Z,98461.89
2018-12-21T16:44:36.015Z,98448.08
2018-12-21T16:47:02.450Z,98442.69
2018-12-21T16:49:28.700Z,98454.82
2018-12-21T16:51:55.233Z,98442.66
2018-12-21T16:54:22.617Z,98437.84
2018-12-21T16:56:48.830Z,98450.33
2018-12-21T16:59:15.702Z,98448.78
2018-12-21T17:01:42.709Z,98448.87
2018-12-21T17:04:09.036Z,98433.16
2018-12-21T17:06:37.462Z,98442.20
2018-12-21T17:09:06.278Z,98458.27
2018-12-21T17:11:32.461Z,98435.19
2018-12-21T17:13:58.663Z,98439.46
2018-12-21T17:16:24.907Z,98446.02
2018-12-21T17:18:51.321Z,98433.00
2018-12-21T17:21:17.529Z,98441.36
2018-12-21T17:23:43.659Z,98436.61
2018-12-21T17:26:09.835Z,98426.38
2018-12-21T17:28:36.060Z,98432.80
2018-12-21T17:31:02.403Z,98424.36
2018-12-21T17:33:28.616Z,98425.19
2018-12-21T17:35:54.764Z,98417.23
2018-12-21T17:38:21.032Z,98420.25
2018-12-21T17:40:48.259Z,98421.27
2018-12-21T17:43:14.495Z,98418.02
2018-12-21T17:45:41.623Z,98437.36
2018-12-21T17:48:09.585Z,98414.91
2018-12-21T17:50:37.525Z,98409.50
2018-12-21T17:53:03.961Z,98425.30
2018-12-21T17:55:30.746Z,98449.11
2018-12-21T17:57:56.911Z,98416.14
2018-12-21T18:00:23.290Z,98430.25
2018-12-21T18:02:50.954Z,98421.39
2018-12-21T18:05:18.975Z,98428.94
2018-12-21T18:07:45.322Z,98443.87
2018-12-21T18:10:11.620Z,98445.33
2018-12-21T18:12:38.712Z,98449.48
2018-12-21T18:15:07.554Z,98430.25
2018-12-21T18:17:33.766Z,98442.25
2018-12-21T18:20:00.921Z,98448.70
2018-12-21T18:22:27.125Z,98427.50
2018-12-21T18:24:53.620Z,98457.73
2018-12-21T18:27:19.863Z,98441.63
2018-12-21T18:29:47.374Z,98450.68
2018-12-21T18:32:16.437Z,98443.63
2018-12-21T18:34:42.545Z,98414.88
2018-12-21T18:37:08.966Z,98433.11
2018-12-21T18:39:35.130Z,98430.32
2018-12-21T18:42:01.671Z,98434.11
2018-12-21T18:44:28.038Z,98440.68
2018-12-21T18:46:54.211Z,98455.59
2018-12-21T18:49:21.213Z,98452.50
2018-12-21T18:51:47.447Z,98467.42
2018-12-21T18:57:13.884Z,98461.16
2018-12-21T18:59:40.101Z,98462.77
2018-12-21T19:02:06.447Z,98448.70
2018-12-21T19:04:32.653Z,98469.67
2018-12-21T19:06:59.772Z,98473.65
2018-12-21T19:09:26.119Z,98459.36
2018-12-21T19:11:52.337Z,98464.45
2018-12-21T19:14:18.670Z,98463.11
2018-12-21T19:16:44.940Z,98457.70
2018-12-21T19:19:11.123Z,98441.27
2018-12-21T19:21:37.426Z,98453.09
2018-12-21T19:24:03.760Z,98447.66
2018-12-21T19:26:30.849Z,98471.14
2018-12-21T19:28:57.034Z,98476.39
2018-12-21T19:31:23.485Z,98453.58
2018-12-21T19:33:49.991Z,98466.90
2018-12-21T19:36:16.236Z,98458.68
2018-12-21T19:38:42.293Z,98464.23
2018-12-21T19:41:09.260Z,98456.05
2018-12-21T19:43:35.365Z,98456.39
2018-12-21T19:46:01.710Z,98444.08
2018-12-21T19:48:29.106Z,98467.72
2018-12-21T19:50:55.320Z,98449.80
2018-12-21T19:53:23.391Z,98460.81
2018-12-21T19:55:49.929Z,98462.80
2018-12-21T19:58:23.125Z,98458.22
2018-12-21T20:00:49.260Z,98405.66
2018-12-21T20:03:15.845Z,98460.52
2018-12-21T20:05:42.957Z,98447.56
2018-12-21T20:08:09.721Z,98429.63
2018-12-21T20:10:36.656Z,98453.33
2018-12-21T20:13:03.116Z,98457.27
2018-12-21T20:15:29.380Z,98483.56
2018-12-21T20:18:02.535Z,98499.54
2018-12-21T20:20:28.977Z,98498.56
2018-12-21T20:22:55.579Z,98484.44
2018-12-21T20:25:21.923Z,98477.21
2018-12-21T20:27:48.159Z,98496.30
2018-12-21T20:30:16.037Z,98477.37
2018-12-21T20:32:42.216Z,98471.78
2018-12-21T20:35:08.789Z,98484.05
2018-12-21T20:37:35.349Z,98450.38
2018-12-21T20:40:05.123Z,98459.27
2018-12-21T20:42:31.237Z,98474.38
2018-12-21T20:44:57.330Z,98470.24
2018-12-21T20:47:23.739Z,98467.80
2018-12-21T20:49:50.148Z,98477.33
2018-12-21T20:52:16.388Z,98492.59
2018-12-21T20:54:42.630Z,98484.75
2018-12-21T20:57:09.282Z,98500.36
2018-12-21T20:59:36.171Z,98504.64
2018-12-21T21:02:02.536Z,98508.77
2018-12-21T21:04:28.680Z,98498.84
2018-12-21T21:06:54.802Z,98493.09
2018-12-21T21:09:21.015Z,98502.14
2018-12-21T21:11:47.262Z,98531.82
2018-12-21T21:14:13.553Z,98534.14
2018-12-21T21:16:39.886Z,98507.98
2018-12-21T21:19:06.078Z,98562.63
2018-12-21T21:21:32.341Z,98538.00
2018-12-21T21:23:58.486Z,98540.94
2018-12-21T21:26:24.909Z,98564.72
2018-12-21T21:28:51.093Z,98559.65
2018-12-21T21:31:17.589Z,98566.86
2018-12-21T21:33:43.887Z,98566.23
2018-12-21T21:36:09.975Z,98560.78
2018-12-21T21:38:36.183Z,98561.21
2018-12-21T21:41:02.375Z,98566.11
2018-12-21T21:43:28.735Z,98573.10
2018-12-21T21:45:54.970Z,98559.91
2018-12-21T21:48:21.065Z,98553.18
2018-12-21T21:50:47.350Z,98591.04
2018-12-21T21:53:13.466Z,98586.21
2018-12-21T21:55:39.673Z,98596.70
2018-12-21T21:58:05.793Z,98597.89
2018-12-21T22:00:32.727Z,98605.95
2018-12-21T22:02:59.060Z,98613.84
2018-12-21T22:05:25.255Z,98605.14
2018-12-21T22:07:51.391Z,98598.28
2018-12-21T22:10:17.705Z,98571.86
2018-12-21T22:12:43.897Z,98626.14
2018-12-21T22:15:10.224Z,98607.38
2018-12-21T22:17:36.390Z,98580.07
2018-12-21T22:20:05.978Z,98609.50
2018-12-21T22:22:39.129Z,98599.35
2018-12-21T22:25:05.770Z,98583.92
2018-12-21T22:27:32.968Z,98572.68
2018-12-21T22:29:59.189Z,98568.66
2018-12-21T22:32:25.385Z,98571.76
2018-12-21T22:34:51.741Z,98548.38
2018-12-21T22:37:17.964Z,98587.58
2018-12-21T22:39:44.176Z,98592.09
2018-12-21T22:42:10.341Z,98619.40
2018-12-21T22:44:36.577Z,98606.61
2018-12-21T22:47:03.123Z,98604.93
2018-12-21T22:49:29.208Z,98607.45
2018-12-21T22:51:55.402Z,98606.19
2018-12-21T22:54:21.507Z,98604.83
2018-12-21T22:56:47.578Z,98633.47
2018-12-21T22:59:13.885Z,98626.34
2018-12-21T23:01:40.088Z,98623.19
2018-12-21T23:04:06.218Z,98630.09
2018-12-21T23:06:32.356Z,98628.28
2018-12-21T23:08:58.556Z,98641.02
2018-12-21T23:11:25.180Z,98612.14
2018-12-21T23:13:52.144Z,98636.77
2018-12-21T23:16:18.365Z,98635.41
2018-12-21T23:18:44.521Z,98633.14
2018-12-21T23:21:10.749Z,98638.19
2018-12-21T23:23:36.887Z,98633.70
2018-12-21T23:26:03.095Z,98647.75
2018-12-21T23:28:29.429Z,98670.90
2018-12-21T23:30:55.523Z,98657.32
2018-12-21T23:33:21.872Z,98671.48
2018-12-21T23:35:48.088Z,98658.70
2018-12-21T23:38:14.284Z,98663.19
2018-12-21T23:40:40.602Z,98662.67
2018-12-21T23:43:06.783Z,98669.34
2018-12-21T23:45:32.916Z,98666.67
2018-12-21T23:47:59.198Z,98668.13
2018-12-21T23:50:25.478Z,98659.87
2018-12-21T23:52:51.668Z,98670.74
2018-12-21T23:55:17.796Z,98668.81
2018-12-21T23:57:43.895Z,98669.42
